Boulevard, CA (91905)

8:22 PM PDT on September 21, 2014 (GMT -0700)
Tierra Del Sol | Change Station
CLOSE
Current Station
Personal Weather Station
Location: Boulevard, CA
Elevation: 3710 ft
Nearby Weather Stations

Elev 3710 ft 32.61 °N, 116.33 °W | Updated 2 minutes ago

Clear
Clear
63.1 °F
Feels Like 63.1 °F
N
0.0
Wind Variable Wind from West
Gusts 2.0 mph

Today
High -- | Low -- °F
--% Chance of Precip.
Yesterday
High -- | Low -- °F
Precip. -- in
6:32 AM 6:43 PM
Waning Crescent, 4% visible
Pressure 29.90 in
Visibility -9999.0 miles
Clouds
Dew Point 54 °F
Humidity 73%
Rainfall 0.00 in
Snow Depth 0 in , 0 in , 0 in
UV Not available.
Pollen 5.60 out of 12
Air Quality Not available.
Flu Activity Not available.
METAR KCZZ 220252Z AUTO 22004KT 19/14 A2996 RMK AO1 SLP123 T01940139 53008

More Conditions Fewer Conditions

Pressure 29.90 in
Visibility -9999.0 miles
Clouds
Dew Point 54 °F
Humidity 73%
Rainfall 0.00 in
Snow Depth 0 in , 0 in , 0 in
UV Not available.
Pollen 5.60 out of 12
Air Quality Not available.
Flu Activity Not available.
METAR KCZZ 220252Z AUTO 22004KT 19/14 A2996 RMK AO1 SLP123 T01940139 53008

More Conditions Fewer Conditions

10-Day Weather Forecast

Almanac

Astronomy

Sep. 21, 2014 Rise Set
Actual Time 6:32 AM PDT 6:43 PM PDT
Civil Twilight 6:08 AM PDT 7:07 PM PDT
Nautical Twilight 5:39 AM PDT 7:36 PM PDT
Astronomical Twilight 5:10 AM PDT 8:05 PM PDT
Moon 4:16 AM PDT (9/21) 5:17 PM PDT (9/21)
Length of Visible Light 12h 59m
Length of Day
12h 10m
Tomorrow will be 2m 0s shorter.
Waning Crescent, 4% of the Moon is Illuminated
Today
Waning Crescent
Sep 24
New
Oct 1
First Quarter
Oct 8
Full
Oct 15
Last Quarter

Today's Extremes

State Highs State Lows

Community

WunderPhotos

Upload Photos

1,755,382 photos uploaded!

WunderBlogs® & News

Nearby

Snow Depth

Station Depth Elevation
Monitor Pass 0 in 8350 ft
Tahoe City Cross 0 in 6750 ft
Forestdale Creek 0 in 8029 ft
Summit Meadow 1 in 9122 ft
Leavitt Lake 0 in 9400 ft

Earthquake Activity

City Distance Mag. Time & Date
Borrego Springs, California 31 miles 2.6 7:34 AM PDT
2014-09-21
Aguanga, California 58 miles 2.5 1:38 AM PDT
2014-09-19
Minimum magnitude displayed is 2.5.

Coastal Water Temperatures

Place Temperature
No Stations Reporting

Nearby Weather Stations